sensor_id;sensor_type;location;lat;lon;timestamp;temperature;humidity
13642;DHT22;6894;52.196;9.904;2022-11-03T00:02:15;10.40;58.20
13642;DHT22;6894;52.196;9.904;2022-11-03T00:04:41;10.40;63.00
13642;DHT22;6894;52.196;9.904;2022-11-03T00:07:09;10.30;73.80
13642;DHT22;6894;52.196;9.904;2022-11-03T00:09:35;10.30;84.60
13642;DHT22;6894;52.196;9.904;2022-11-03T00:12:02;10.20;92.30
13642;DHT22;6894;52.196;9.904;2022-11-03T00:14:30;10.20;97.80
13642;DHT22;6894;52.196;9.904;2022-11-03T00:16:56;10.20;99.50
13642;DHT22;6894;52.196;9.904;2022-11-03T00:19:24;10.20;99.90
13642;DHT22;6894;52.196;9.904;2022-11-03T00:21:51;10.10;99.90
13642;DHT22;6894;52.196;9.904;2022-11-03T00:24:18;10.10;99.90
13642;DHT22;6894;52.196;9.904;2022-11-03T00:26:44;10.10;99.90
13642;DHT22;6894;52.196;9.904;2022-11-03T00:29:12;10.10;99.90
13642;DHT22;6894;52.196;9.904;2022-11-03T00:31:41;10.10;99.90
13642;DHT22;6894;52.196;9.904;2022-11-03T00:34:08;10.10;99.90
13642;DHT22;6894;52.196;9.904;2022-11-03T00:36:37;10.00;99.90
13642;DHT22;6894;52.196;9.904;2022-11-03T00:39:05;10.00;99.90
13642;DHT22;6894;52.196;9.904;2022-11-03T00:41:32;10.00;99.90
13642;DHT22;6894;52.196;9.904;2022-11-03T00:43:59;10.00;99.90
13642;DHT22;6894;52.196;9.904;2022-11-03T00:46:25;10.00;99.90
13642;DHT22;6894;52.196;9.904;2022-11-03T00:48:54;9.90;99.90
13642;DHT22;6894;52.196;9.904;2022-11-03T00:51:22;9.90;99.90
13642;DHT22;6894;52.196;9.904;2022-11-03T00:53:52;9.90;99.90
13642;DHT22;6894;52.196;9.904;2022-11-03T00:56:20;9.90;99.90
13642;DHT22;6894;52.196;9.904;2022-11-03T00:58:49;9.90;99.90
13642;DHT22;6894;52.196;9.904;2022-11-03T01:01:17;9.90;99.90
13642;DHT22;6894;52.196;9.904;2022-11-03T01:03:46;9.90;99.90
13642;DHT22;6894;52.196;9.904;2022-11-03T01:06:27;9.90;99.90
13642;DHT22;6894;52.196;9.904;2022-11-03T01:09:13;9.80;99.90
13642;DHT22;6894;52.196;9.904;2022-11-03T01:11:40;9.80;99.90
13642;DHT22;6894;52.196;9.904;2022-11-03T01:14:11;9.80;99.90
13642;DHT22;6894;52.196;9.904;2022-11-03T01:16:38;9.80;99.90
13642;DHT22;6894;52.196;9.904;2022-11-03T01:19:06;9.80;99.90
13642;DHT22;6894;52.196;9.904;2022-11-03T01:21:33;9.80;99.90
13642;DHT22;6894;52.196;9.904;2022-11-03T01:24:00;9.80;99.90
13642;DHT22;6894;52.196;9.904;2022-11-03T01:29:50;9.80;99.90
13642;DHT22;6894;52.196;9.904;2022-11-03T01:32:17;9.80;99.90
13642;DHT22;6894;52.196;9.904;2022-11-03T01:34:44;9.70;99.90
13642;DHT22;6894;52.196;9.904;2022-11-03T01:37:11;9.70;99.90
13642;DHT22;6894;52.196;9.904;2022-11-03T01:39:38;9.70;99.90
13642;DHT22;6894;52.196;9.904;2022-11-03T01:42:04;9.70;99.90
13642;DHT22;6894;52.196;9.904;2022-11-03T01:44:34;9.70;99.90
13642;DHT22;6894;52.196;9.904;2022-11-03T01:47:08;9.70;99.90
13642;DHT22;6894;52.196;9.904;2022-11-03T01:49:42;9.80;99.90
13642;DHT22;6894;52.196;9.904;2022-11-03T01:52:15;9.80;99.90
13642;DHT22;6894;52.196;9.904;2022-11-03T01:54:47;9.90;99.90
13642;DHT22;6894;52.196;9.904;2022-11-03T01:57:19;9.90;99.90
13642;DHT22;6894;52.196;9.904;2022-11-03T01:59:48;10.00;99.90
13642;DHT22;6894;52.196;9.904;2022-11-03T02:02:16;10.00;99.90
13642;DHT22;6894;52.196;9.904;2022-11-03T02:04:43;10.00;99.90
13642;DHT22;6894;52.196;9.904;2022-11-03T02:07:16;10.10;99.90
13642;DHT22;6894;52.196;9.904;2022-11-03T02:09:43;10.10;99.90
13642;DHT22;6894;52.196;9.904;2022-11-03T02:12:10;10.10;99.90
13642;DHT22;6894;52.196;9.904;2022-11-03T02:14:41;10.60;96.30
13642;DHT22;6894;52.196;9.904;2022-11-03T02:17:10;10.20;92.30
13642;DHT22;6894;52.196;9.904;2022-11-03T02:19:42;10.20;95.00
13642;DHT22;6894;52.196;9.904;2022-11-03T02:22:33;10.10;94.40
13642;DHT22;6894;52.196;9.904;2022-11-03T02:25:11;10.10;97.80
13642;DHT22;6894;52.196;9.904;2022-11-03T02:27:43;10.10;99.90
13642;DHT22;6894;52.196;9.904;2022-11-03T02:30:10;10.00;99.90
13642;DHT22;6894;52.196;9.904;2022-11-03T02:32:41;10.00;99.90
13642;DHT22;6894;52.196;9.904;2022-11-03T02:35:12;10.00;99.90
13642;DHT22;6894;52.196;9.904;2022-11-03T02:37:46;9.90;99.90
13642;DHT22;6894;52.196;9.904;2022-11-03T02:40:17;9.90;99.90
13642;DHT22;6894;52.196;9.904;2022-11-03T02:42:50;9.90;99.90
13642;DHT22;6894;52.196;9.904;2022-11-03T02:45:20;9.90;99.90
13642;DHT22;6894;52.196;9.904;2022-11-03T02:47:48;9.90;99.90
13642;DHT22;6894;52.196;9.904;2022-11-03T02:50:16;9.90;99.90
13642;DHT22;6894;52.196;9.904;2022-11-03T02:52:45;9.90;99.90
13642;DHT22;6894;52.196;9.904;2022-11-03T02:55:21;9.80;99.90
13642;DHT22;6894;52.196;9.904;2022-11-03T02:57:55;9.80;99.90
13642;DHT22;6894;52.196;9.904;2022-11-03T03:00:24;9.80;99.90
13642;DHT22;6894;52.196;9.904;2022-11-03T03:02:54;9.80;99.90
13642;DHT22;6894;52.196;9.904;2022-11-03T03:05:25;9.80;99.90
13642;DHT22;6894;52.196;9.904;2022-11-03T03:07:58;9.80;99.90
13642;DHT22;6894;52.196;9.904;2022-11-03T03:10:29;9.90;99.90
13642;DHT22;6894;52.196;9.904;2022-11-03T03:12:59;9.90;99.90
13642;DHT22;6894;52.196;9.904;2022-11-03T03:15:33;9.90;99.90
13642;DHT22;6894;52.196;9.904;2022-11-03T03:18:11;10.00;99.90
13642;DHT22;6894;52.196;9.904;2022-11-03T03:20:46;10.00;99.90
13642;DHT22;6894;52.196;9.904;2022-11-03T03:23:19;10.00;99.90
13642;DHT22;6894;52.196;9.904;2022-11-03T03:25:48;10.00;99.90
13642;DHT22;6894;52.196;9.904;2022-11-03T03:28:21;9.90;99.90
13642;DHT22;6894;52.196;9.904;2022-11-03T03:30:49;9.90;99.90
13642;DHT22;6894;52.196;9.904;2022-11-03T03:33:17;9.90;99.90
13642;DHT22;6894;52.196;9.904;2022-11-03T03:35:47;9.90;99.90
13642;DHT22;6894;52.196;9.904;2022-11-03T03:38:18;10.00;99.90
13642;DHT22;6894;52.196;9.904;2022-11-03T03:40:50;10.50;99.90
13642;DHT22;6894;52.196;9.904;2022-11-03T03:43:19;10.10;99.90
13642;DHT22;6894;52.196;9.904;2022-11-03T03:45:49;10.00;99.90
13642;DHT22;6894;52.196;9.904;2022-11-03T03:48:17;10.00;99.60
13642;DHT22;6894;52.196;9.904;2022-11-03T03:50:46;10.00;97.50
13642;DHT22;6894;52.196;9.904;2022-11-03T03:53:15;10.00;99.90
13642;DHT22;6894;52.196;9.904;2022-11-03T03:55:44;10.00;99.90
13642;DHT22;6894;52.196;9.904;2022-11-03T03:58:13;10.00;99.90
13642;DHT22;6894;52.196;9.904;2022-11-03T04:00:42;10.00;99.90
13642;DHT22;6894;52.196;9.904;2022-11-03T04:03:13;10.00;99.90
13642;DHT22;6894;52.196;9.904;2022-11-03T04:05:41;10.00;99.90
13642;DHT22;6894;52.196;9.904;2022-11-03T04:08:08;10.00;99.90
13642;DHT22;6894;52.196;9.904;2022-11-03T04:10:35;10.00;99.90
13642;DHT22;6894;52.196;9.904;2022-11-03T04:13:01;10.10;99.90
13642;DHT22;6894;52.196;9.904;2022-11-03T04:15:47;10.00;99.90
13642;DHT22;6894;52.196;9.904;2022-11-03T04:18:31;10.00;99.90
13642;DHT22;6894;52.196;9.904;2022-11-03T04:21:15;10.10;99.90
13642;DHT22;6894;52.196;9.904;2022-11-03T04:24:00;10.00;99.90
13642;DHT22;6894;52.196;9.904;2022-11-03T04:26:27;10.10;99.90
13642;DHT22;6894;52.196;9.904;2022-11-03T04:28:54;10.10;99.90
13642;DHT22;6894;52.196;9.904;2022-11-03T04:31:22;10.00;99.90
13642;DHT22;6894;52.196;9.904;2022-11-03T04:33:50;10.10;99.90
13642;DHT22;6894;52.196;9.904;2022-11-03T04:36:18;10.10;99.90
13642;DHT22;6894;52.196;9.904;2022-11-03T04:38:45;10.20;99.90
13642;DHT22;6894;52.196;9.904;2022-11-03T04:41:15;10.20;99.90
13642;DHT22;6894;52.196;9.904;2022-11-03T04:43:44;10.20;99.90
13642;DHT22;6894;52.196;9.904;2022-11-03T04:46:12;10.20;99.90
13642;DHT22;6894;52.196;9.904;2022-11-03T04:48:42;10.20;99.90
13642;DHT22;6894;52.196;9.904;2022-11-03T04:51:13;10.20;99.90
13642;DHT22;6894;52.196;9.904;2022-11-03T04:53:46;10.20;99.90
13642;DHT22;6894;52.196;9.904;2022-11-03T04:56:16;10.20;99.90
13642;DHT22;6894;52.196;9.904;2022-11-03T04:58:43;10.20;99.90
13642;DHT22;6894;52.196;9.904;2022-11-03T05:01:13;10.20;99.90
13642;DHT22;6894;52.196;9.904;2022-11-03T05:03:43;10.20;99.90
13642;DHT22;6894;52.196;9.904;2022-11-03T05:06:13;10.20;99.90
13642;DHT22;6894;52.196;9.904;2022-11-03T05:08:41;10.20;99.90
13642;DHT22;6894;52.196;9.904;2022-11-03T05:11:14;10.20;99.90
13642;DHT22;6894;52.196;9.904;2022-11-03T05:13:42;10.20;99.90
13642;DHT22;6894;52.196;9.904;2022-11-03T05:16:09;10.20;99.90
13642;DHT22;6894;52.196;9.904;2022-11-03T05:18:38;10.20;99.90
13642;DHT22;6894;52.196;9.904;2022-11-03T05:21:11;10.20;99.90
13642;DHT22;6894;52.196;9.904;2022-11-03T05:23:40;10.20;99.90
13642;DHT22;6894;52.196;9.904;2022-11-03T05:26:14;10.20;99.90
13642;DHT22;6894;52.196;9.904;2022-11-03T05:28:45;10.10;99.90
13642;DHT22;6894;52.196;9.904;2022-11-03T05:31:31;10.10;99.90
13642;DHT22;6894;52.196;9.904;2022-11-03T05:34:01;10.10;99.90
13642;DHT22;6894;52.196;9.904;2022-11-03T05:36:30;10.20;99.90
13642;DHT22;6894;52.196;9.904;2022-11-03T05:39:04;10.10;99.90
13642;DHT22;6894;52.196;9.904;2022-11-03T05:41:42;10.10;99.90
13642;DHT22;6894;52.196;9.904;2022-11-03T05:44:23;10.10;99.90
13642;DHT22;6894;52.196;9.904;2022-11-03T05:46:50;10.00;99.90
13642;DHT22;6894;52.196;9.904;2022-11-03T05:49:17;10.10;99.90
13642;DHT22;6894;52.196;9.904;2022-11-03T05:51:46;10.10;99.90
13642;DHT22;6894;52.196;9.904;2022-11-03T05:54:19;10.00;99.90
13642;DHT22;6894;52.196;9.904;2022-11-03T05:56:47;10.00;99.90
13642;DHT22;6894;52.196;9.904;2022-11-03T05:59:16;10.10;99.90
13642;DHT22;6894;52.196;9.904;2022-11-03T06:01:45;10.10;99.90
13642;DHT22;6894;52.196;9.904;2022-11-03T06:04:17;10.00;99.90
13642;DHT22;6894;52.196;9.904;2022-11-03T06:06:49;10.00;99.90
13642;DHT22;6894;52.196;9.904;2022-11-03T06:09:20;10.00;99.90
13642;DHT22;6894;52.196;9.904;2022-11-03T06:11:48;10.10;99.90
13642;DHT22;6894;52.196;9.904;2022-11-03T06:14:18;10.00;99.90
13642;DHT22;6894;52.196;9.904;2022-11-03T06:16:47;10.00;99.90
13642;DHT22;6894;52.196;9.904;2022-11-03T06:19:20;9.90;99.90
13642;DHT22;6894;52.196;9.904;2022-11-03T06:21:51;9.90;99.90
13642;DHT22;6894;52.196;9.904;2022-11-03T06:24:21;9.90;99.90
13642;DHT22;6894;52.196;9.904;2022-11-03T06:26:50;9.90;99.90
13642;DHT22;6894;52.196;9.904;2022-11-03T06:29:18;9.80;99.90
13642;DHT22;6894;52.196;9.904;2022-11-03T06:31:48;9.90;99.90
13642;DHT22;6894;52.196;9.904;2022-11-03T06:34:36;9.90;99.90
13642;DHT22;6894;52.196;9.904;2022-11-03T06:37:19;9.90;99.90
13642;DHT22;6894;52.196;9.904;2022-11-03T06:39:46;9.90;99.90
13642;DHT22;6894;52.196;9.904;2022-11-03T06:42:15;9.90;99.90
13642;DHT22;6894;52.196;9.904;2022-11-03T06:44:44;9.90;99.90
13642;DHT22;6894;52.196;9.904;2022-11-03T06:47:20;10.00;99.90
13642;DHT22;6894;52.196;9.904;2022-11-03T06:49:48;9.90;99.90
13642;DHT22;6894;52.196;9.904;2022-11-03T06:52:36;9.90;99.90
13642;DHT22;6894;52.196;9.904;2022-11-03T06:55:21;10.00;99.90
13642;DHT22;6894;52.196;9.904;2022-11-03T06:57:50;10.00;99.90
13642;DHT22;6894;52.196;9.904;2022-11-03T07:00:20;10.00;99.90
13642;DHT22;6894;52.196;9.904;2022-11-03T07:02:54;10.00;99.90
13642;DHT22;6894;52.196;9.904;2022-11-03T07:05:23;10.00;99.90
13642;DHT22;6894;52.196;9.904;2022-11-03T07:07:54;10.10;99.90
13642;DHT22;6894;52.196;9.904;2022-11-03T07:10:23;10.10;99.90
13642;DHT22;6894;52.196;9.904;2022-11-03T07:12:51;10.00;99.90
13642;DHT22;6894;52.196;9.904;2022-11-03T07:15:23;10.10;99.90
13642;DHT22;6894;52.196;9.904;2022-11-03T07:17:51;10.10;99.90
13642;DHT22;6894;52.196;9.904;2022-11-03T07:20:18;10.20;99.90
13642;DHT22;6894;52.196;9.904;2022-11-03T07:22:47;10.10;99.90
13642;DHT22;6894;52.196;9.904;2022-11-03T07:25:17;10.20;99.90
13642;DHT22;6894;52.196;9.904;2022-11-03T07:27:45;10.20;99.90
13642;DHT22;6894;52.196;9.904;2022-11-03T07:30:18;10.20;99.90
13642;DHT22;6894;52.196;9.904;2022-11-03T07:32:47;10.30;99.90
13642;DHT22;6894;52.196;9.904;2022-11-03T07:35:27;10.30;99.90
13642;DHT22;6894;52.196;9.904;2022-11-03T07:37:55;10.40;99.90
13642;DHT22;6894;52.196;9.904;2022-11-03T07:40:25;10.30;99.90
13642;DHT22;6894;52.196;9.904;2022-11-03T07:42:56;10.40;99.90
13642;DHT22;6894;52.196;9.904;2022-11-03T07:45:34;10.40;99.90
13642;DHT22;6894;52.196;9.904;2022-11-03T07:48:10;10.50;99.90
13642;DHT22;6894;52.196;9.904;2022-11-03T07:50:40;10.50;99.90
13642;DHT22;6894;52.196;9.904;2022-11-03T07:53:10;10.50;99.90
13642;DHT22;6894;52.196;9.904;2022-11-03T07:55:40;10.60;99.90
13642;DHT22;6894;52.196;9.904;2022-11-03T07:58:21;11.40;99.90
13642;DHT22;6894;52.196;9.904;2022-11-03T08:00:48;10.70;99.90
13642;DHT22;6894;52.196;9.904;2022-11-03T08:03:25;10.70;99.90
13642;DHT22;6894;52.196;9.904;2022-11-03T08:05:53;10.80;99.90
13642;DHT22;6894;52.196;9.904;2022-11-03T08:08:20;10.80;99.90
13642;DHT22;6894;52.196;9.904;2022-11-03T08:10:48;10.90;99.90
13642;DHT22;6894;52.196;9.904;2022-11-03T08:13:15;10.90;99.90
13642;DHT22;6894;52.196;9.904;2022-11-03T08:15:42;10.90;99.90
13642;DHT22;6894;52.196;9.904;2022-11-03T08:18:09;11.00;99.90
13642;DHT22;6894;52.196;9.904;2022-11-03T08:20:36;11.10;99.90
13642;DHT22;6894;52.196;9.904;2022-11-03T08:23:03;11.10;99.90
13642;DHT22;6894;52.196;9.904;2022-11-03T08:25:30;11.20;99.90
13642;DHT22;6894;52.196;9.904;2022-11-03T08:27:58;11.20;99.90
13642;DHT22;6894;52.196;9.904;2022-11-03T08:30:26;11.40;99.90
13642;DHT22;6894;52.196;9.904;2022-11-03T08:32:52;11.50;99.90
13642;DHT22;6894;52.196;9.904;2022-11-03T08:35:19;11.70;99.90
13642;DHT22;6894;52.196;9.904;2022-11-03T08:37:46;11.90;99.90
13642;DHT22;6894;52.196;9.904;2022-11-03T08:40:13;12.10;99.50
13642;DHT22;6894;52.196;9.904;2022-11-03T08:42:39;12.40;90.50
13642;DHT22;6894;52.196;9.904;2022-11-03T08:45:08;12.50;47.20
13642;DHT22;6894;52.196;9.904;2022-11-03T08:47:35;12.70;30.80
13642;DHT22;6894;52.196;9.904;2022-11-03T08:50:02;12.70;22.30
13642;DHT22;6894;52.196;9.904;2022-11-03T08:52:29;12.70;37.90
13642;DHT22;6894;52.196;9.904;2022-11-03T08:54:56;12.70;30.00
13642;DHT22;6894;52.196;9.904;2022-11-03T08:57:23;12.70;36.30
13642;DHT22;6894;52.196;9.904;2022-11-03T08:59:49;12.70;28.00
13642;DHT22;6894;52.196;9.904;2022-11-03T09:02:18;12.80;28.70
13642;DHT22;6894;52.196;9.904;2022-11-03T09:04:45;12.70;35.90
13642;DHT22;6894;52.196;9.904;2022-11-03T09:07:12;12.70;38.20
13642;DHT22;6894;52.196;9.904;2022-11-03T09:09:39;12.70;46.40
13642;DHT22;6894;52.196;9.904;2022-11-03T09:12:05;12.70;44.40
13642;DHT22;6894;52.196;9.904;2022-11-03T09:14:32;12.80;41.10
13642;DHT22;6894;52.196;9.904;2022-11-03T09:16:59;12.90;32.10
13642;DHT22;6894;52.196;9.904;2022-11-03T09:19:27;13.10;21.40
13642;DHT22;6894;52.196;9.904;2022-11-03T09:21:53;13.30;11.80
13642;DHT22;6894;52.196;9.904;2022-11-03T09:24:21;13.50;1.00
13642;DHT22;6894;52.196;9.904;2022-11-03T09:26:48;13.60;1.00
13642;DHT22;6894;52.196;9.904;2022-11-03T09:29:14;13.80;1.00
13642;DHT22;6894;52.196;9.904;2022-11-03T09:31:41;13.90;1.00
13642;DHT22;6894;52.196;9.904;2022-11-03T09:34:08;14.10;1.00
13642;DHT22;6894;52.196;9.904;2022-11-03T09:36:36;14.30;1.00
13642;DHT22;6894;52.196;9.904;2022-11-03T09:39:03;14.10;1.00
13642;DHT22;6894;52.196;9.904;2022-11-03T09:41:30;14.10;1.00
13642;DHT22;6894;52.196;9.904;2022-11-03T09:43:58;14.00;1.00
13642;DHT22;6894;52.196;9.904;2022-11-03T09:46:26;14.00;1.00
13642;DHT22;6894;52.196;9.904;2022-11-03T09:48:54;14.10;1.00
13642;DHT22;6894;52.196;9.904;2022-11-03T09:51:22;14.30;1.00
13642;DHT22;6894;52.196;9.904;2022-11-03T09:53:52;14.40;1.00
13642;DHT22;6894;52.196;9.904;2022-11-03T09:56:21;14.50;1.00
13642;DHT22;6894;52.196;9.904;2022-11-03T09:58:48;14.60;1.00
13642;DHT22;6894;52.196;9.904;2022-11-03T10:01:15;14.70;1.00
13642;DHT22;6894;52.196;9.904;2022-11-03T10:03:42;14.60;1.00
13642;DHT22;6894;52.196;9.904;2022-11-03T10:06:09;14.40;1.00
13642;DHT22;6894;52.196;9.904;2022-11-03T10:08:37;14.30;1.00
13642;DHT22;6894;52.196;9.904;2022-11-03T10:11:07;14.10;1.00
13642;DHT22;6894;52.196;9.904;2022-11-03T10:13:36;13.80;1.00
13642;DHT22;6894;52.196;9.904;2022-11-03T10:16:06;13.70;1.00
13642;DHT22;6894;52.196;9.904;2022-11-03T10:18:35;13.70;1.00
13642;DHT22;6894;52.196;9.904;2022-11-03T10:21:04;13.60;1.00
13642;DHT22;6894;52.196;9.904;2022-11-03T10:23:32;13.60;1.00
13642;DHT22;6894;52.196;9.904;2022-11-03T10:26:09;13.50;1.00
13642;DHT22;6894;52.196;9.904;2022-11-03T10:28:36;13.50;1.00
13642;DHT22;6894;52.196;9.904;2022-11-03T10:31:06;13.50;9.50
13642;DHT22;6894;52.196;9.904;2022-11-03T10:33:38;13.40;12.60
13642;DHT22;6894;52.196;9.904;2022-11-03T10:36:22;13.40;13.40
13642;DHT22;6894;52.196;9.904;2022-11-03T10:38:49;13.40;14.60
13642;DHT22;6894;52.196;9.904;2022-11-03T10:41:18;13.40;9.60
13642;DHT22;6894;52.196;9.904;2022-11-03T10:44:00;13.40;6.70
13642;DHT22;6894;52.196;9.904;2022-11-03T10:46:27;13.40;20.30
13642;DHT22;6894;52.196;9.904;2022-11-03T10:49:02;13.40;12.60
13642;DHT22;6894;52.196;9.904;2022-11-03T10:51:31;13.30;12.20
13642;DHT22;6894;52.196;9.904;2022-11-03T10:53:57;13.30;21.30
13642;DHT22;6894;52.196;9.904;2022-11-03T10:56:26;13.30;20.40
13642;DHT22;6894;52.196;9.904;2022-11-03T10:58:53;13.30;37.80
13642;DHT22;6894;52.196;9.904;2022-11-03T11:01:20;13.30;28.00
13642;DHT22;6894;52.196;9.904;2022-11-03T11:03:47;13.40;27.50
13642;DHT22;6894;52.196;9.904;2022-11-03T11:06:22;13.40;34.70
13642;DHT22;6894;52.196;9.904;2022-11-03T11:08:51;13.50;20.40
13642;DHT22;6894;52.196;9.904;2022-11-03T11:11:23;13.60;14.00
13642;DHT22;6894;52.196;9.904;2022-11-03T11:14:32;13.60;12.90
13642;DHT22;6894;52.196;9.904;2022-11-03T11:17:02;13.60;20.70
13642;DHT22;6894;52.196;9.904;2022-11-03T11:19:29;13.60;10.20
13642;DHT22;6894;52.196;9.904;2022-11-03T11:22:01;13.60;15.00
13642;DHT22;6894;52.196;9.904;2022-11-03T11:24:57;13.60;6.90
13642;DHT22;6894;52.196;9.904;2022-11-03T11:31:26;13.70;5.40
13642;DHT22;6894;52.196;9.904;2022-11-03T11:39:51;13.80;1.00
13642;DHT22;6894;52.196;9.904;2022-11-03T11:42:19;13.90;1.00
13642;DHT22;6894;52.196;9.904;2022-11-03T11:44:51;13.80;1.00
13642;DHT22;6894;52.196;9.904;2022-11-03T11:47:31;13.80;1.00
13642;DHT22;6894;52.196;9.904;2022-11-03T11:53:03;13.70;1.50
13642;DHT22;6894;52.196;9.904;2022-11-03T11:55:39;13.80;8.20
13642;DHT22;6894;52.196;9.904;2022-11-03T11:58:14;13.80;7.40
13642;DHT22;6894;52.196;9.904;2022-11-03T12:00:53;13.80;8.00
13642;DHT22;6894;52.196;9.904;2022-11-03T12:03:30;13.90;22.20
13642;DHT22;6894;52.196;9.904;2022-11-03T12:05:57;13.90;18.90
13642;DHT22;6894;52.196;9.904;2022-11-03T12:08:27;13.90;15.50
13642;DHT22;6894;52.196;9.904;2022-11-03T12:10:58;13.90;23.70
13642;DHT22;6894;52.196;9.904;2022-11-03T12:13:46;13.90;17.90
13642;DHT22;6894;52.196;9.904;2022-11-03T12:16:26;13.90;20.10
13642;DHT22;6894;52.196;9.904;2022-11-03T12:18:55;13.90;8.60
13642;DHT22;6894;52.196;9.904;2022-11-03T12:21:44;13.90;3.60
13642;DHT22;6894;52.196;9.904;2022-11-03T12:24:34;13.90;15.00
13642;DHT22;6894;52.196;9.904;2022-11-03T12:27:14;13.90;12.40
13642;DHT22;6894;52.196;9.904;2022-11-03T12:29:41;13.90;12.10
13642;DHT22;6894;52.196;9.904;2022-11-03T12:32:08;13.90;2.50
13642;DHT22;6894;52.196;9.904;2022-11-03T12:34:36;13.80;2.60
13642;DHT22;6894;52.196;9.904;2022-11-03T12:37:03;13.80;6.80
13642;DHT22;6894;52.196;9.904;2022-11-03T12:39:30;13.80;5.20
13642;DHT22;6894;52.196;9.904;2022-11-03T12:41:57;13.90;2.70
13642;DHT22;6894;52.196;9.904;2022-11-03T12:44:24;13.80;1.00
13642;DHT22;6894;52.196;9.904;2022-11-03T12:46:51;13.80;13.10
13642;DHT22;6894;52.196;9.904;2022-11-03T12:49:18;13.80;1.00
13642;DHT22;6894;52.196;9.904;2022-11-03T12:51:46;13.80;1.00
13642;DHT22;6894;52.196;9.904;2022-11-03T12:54:13;13.90;1.00
13642;DHT22;6894;52.196;9.904;2022-11-03T12:56:40;13.90;1.00
13642;DHT22;6894;52.196;9.904;2022-11-03T12:59:07;13.90;1.00
13642;DHT22;6894;52.196;9.904;2022-11-03T13:01:34;13.90;1.00
13642;DHT22;6894;52.196;9.904;2022-11-03T13:04:00;14.00;1.00
13642;DHT22;6894;52.196;9.904;2022-11-03T13:06:29;14.00;1.00
13642;DHT22;6894;52.196;9.904;2022-11-03T13:08:57;14.00;1.00
13642;DHT22;6894;52.196;9.904;2022-11-03T13:11:24;13.90;1.00
13642;DHT22;6894;52.196;9.904;2022-11-03T13:14:08;14.00;1.00
13642;DHT22;6894;52.196;9.904;2022-11-03T13:16:35;14.00;1.00
13642;DHT22;6894;52.196;9.904;2022-11-03T13:19:02;14.10;1.00
13642;DHT22;6894;52.196;9.904;2022-11-03T13:21:29;14.10;1.00
13642;DHT22;6894;52.196;9.904;2022-11-03T13:23:57;14.10;1.00
13642;DHT22;6894;52.196;9.904;2022-11-03T13:26:23;14.10;1.00
13642;DHT22;6894;52.196;9.904;2022-11-03T13:28:50;14.00;1.00
13642;DHT22;6894;52.196;9.904;2022-11-03T13:31:17;14.20;1.00
13642;DHT22;6894;52.196;9.904;2022-11-03T13:33:43;14.10;1.00
13642;DHT22;6894;52.196;9.904;2022-11-03T13:36:10;14.10;1.00
13642;DHT22;6894;52.196;9.904;2022-11-03T13:38:37;14.00;1.00
13642;DHT22;6894;52.196;9.904;2022-11-03T13:41:05;14.00;1.00
13642;DHT22;6894;52.196;9.904;2022-11-03T13:43:32;14.00;1.00
13642;DHT22;6894;52.196;9.904;2022-11-03T13:45:58;14.10;1.00
13642;DHT22;6894;52.196;9.904;2022-11-03T13:48:26;14.00;1.00
13642;DHT22;6894;52.196;9.904;2022-11-03T13:50:53;14.00;1.00
13642;DHT22;6894;52.196;9.904;2022-11-03T13:53:21;14.00;1.00
13642;DHT22;6894;52.196;9.904;2022-11-03T13:55:48;14.00;1.00
13642;DHT22;6894;52.196;9.904;2022-11-03T13:58:16;14.00;1.00
13642;DHT22;6894;52.196;9.904;2022-11-03T14:00:42;14.00;1.00
13642;DHT22;6894;52.196;9.904;2022-11-03T14:03:09;14.00;1.00
13642;DHT22;6894;52.196;9.904;2022-11-03T14:05:36;13.90;1.00
13642;DHT22;6894;52.196;9.904;2022-11-03T14:08:03;14.00;1.00
13642;DHT22;6894;52.196;9.904;2022-11-03T14:10:30;13.90;1.00
13642;DHT22;6894;52.196;9.904;2022-11-03T14:12:57;13.90;1.00
13642;DHT22;6894;52.196;9.904;2022-11-03T14:15:24;14.00;1.00
13642;DHT22;6894;52.196;9.904;2022-11-03T14:17:50;14.00;1.00
13642;DHT22;6894;52.196;9.904;2022-11-03T14:20:17;13.90;1.00
13642;DHT22;6894;52.196;9.904;2022-11-03T14:22:44;13.90;1.00
13642;DHT22;6894;52.196;9.904;2022-11-03T14:25:10;13.90;1.00
13642;DHT22;6894;52.196;9.904;2022-11-03T14:27:37;13.90;1.00
13642;DHT22;6894;52.196;9.904;2022-11-03T14:30:05;13.90;1.00
13642;DHT22;6894;52.196;9.904;2022-11-03T14:32:33;13.90;1.00
13642;DHT22;6894;52.196;9.904;2022-11-03T14:35:00;14.20;1.00
13642;DHT22;6894;52.196;9.904;2022-11-03T14:37:27;14.30;1.00
13642;DHT22;6894;52.196;9.904;2022-11-03T14:39:53;14.30;1.00
13642;DHT22;6894;52.196;9.904;2022-11-03T14:42:20;14.20;1.00
13642;DHT22;6894;52.196;9.904;2022-11-03T14:44:46;14.10;1.00
13642;DHT22;6894;52.196;9.904;2022-11-03T14:47:14;14.00;1.00
13642;DHT22;6894;52.196;9.904;2022-11-03T14:49:44;14.00;1.00
13642;DHT22;6894;52.196;9.904;2022-11-03T14:52:11;14.00;1.00
13642;DHT22;6894;52.196;9.904;2022-11-03T14:54:38;14.00;1.00
13642;DHT22;6894;52.196;9.904;2022-11-03T14:57:05;13.90;1.00
13642;DHT22;6894;52.196;9.904;2022-11-03T14:59:32;13.80;1.00
13642;DHT22;6894;52.196;9.904;2022-11-03T15:02:00;13.80;1.00
13642;DHT22;6894;52.196;9.904;2022-11-03T15:04:27;13.80;1.00
13642;DHT22;6894;52.196;9.904;2022-11-03T15:06:55;13.70;1.00
13642;DHT22;6894;52.196;9.904;2022-11-03T15:09:22;13.80;1.00
13642;DHT22;6894;52.196;9.904;2022-11-03T15:11:49;13.70;6.50
13642;DHT22;6894;52.196;9.904;2022-11-03T15:14:15;13.60;13.10
13642;DHT22;6894;52.196;9.904;2022-11-03T15:16:42;13.60;12.20
13642;DHT22;6894;52.196;9.904;2022-11-03T15:19:10;13.60;15.00
13642;DHT22;6894;52.196;9.904;2022-11-03T15:21:37;13.60;8.80
13642;DHT22;6894;52.196;9.904;2022-11-03T15:24:05;13.60;4.70
13642;DHT22;6894;52.196;9.904;2022-11-03T15:26:32;13.60;1.00
13642;DHT22;6894;52.196;9.904;2022-11-03T15:28:59;13.60;3.90
13642;DHT22;6894;52.196;9.904;2022-11-03T15:31:25;13.70;1.00
13642;DHT22;6894;52.196;9.904;2022-11-03T15:33:52;13.60;1.00
13642;DHT22;6894;52.196;9.904;2022-11-03T15:36:19;13.60;1.00
13642;DHT22;6894;52.196;9.904;2022-11-03T15:38:46;13.60;1.10
13642;DHT22;6894;52.196;9.904;2022-11-03T15:41:14;13.70;2.10
13642;DHT22;6894;52.196;9.904;2022-11-03T15:43:41;13.60;1.70
13642;DHT22;6894;52.196;9.904;2022-11-03T15:46:08;13.60;8.30
13642;DHT22;6894;52.196;9.904;2022-11-03T15:48:35;13.60;10.80
13642;DHT22;6894;52.196;9.904;2022-11-03T15:51:02;13.60;19.80
13642;DHT22;6894;52.196;9.904;2022-11-03T15:53:29;13.50;24.60
13642;DHT22;6894;52.196;9.904;2022-11-03T15:55:56;13.40;30.20
13642;DHT22;6894;52.196;9.904;2022-11-03T15:58:24;13.50;36.50
13642;DHT22;6894;52.196;9.904;2022-11-03T16:00:51;13.40;31.50
13642;DHT22;6894;52.196;9.904;2022-11-03T16:03:18;13.40;42.20
13642;DHT22;6894;52.196;9.904;2022-11-03T16:05:44;13.30;45.90
13642;DHT22;6894;52.196;9.904;2022-11-03T16:08:11;13.30;51.20
13642;DHT22;6894;52.196;9.904;2022-11-03T16:10:38;13.40;43.10
13642;DHT22;6894;52.196;9.904;2022-11-03T16:13:04;13.40;44.40
13642;DHT22;6894;52.196;9.904;2022-11-03T16:15:33;13.40;47.30
13642;DHT22;6894;52.196;9.904;2022-11-03T16:18:00;13.30;49.30
13642;DHT22;6894;52.196;9.904;2022-11-03T16:20:29;13.30;49.30
13642;DHT22;6894;52.196;9.904;2022-11-03T16:22:56;13.30;47.00
13642;DHT22;6894;52.196;9.904;2022-11-03T16:25:23;13.30;44.50